createdAt,value
2016-07-11T00:00:34.029Z,1002.44
2016-07-11T00:01:34.012Z,1002.42
2016-07-11T00:02:34.000Z,1002.42
2016-07-11T00:03:33.985Z,1002.42
2016-07-11T00:04:33.969Z,1002.39
2016-07-11T00:05:33.957Z,1002.42
2016-07-11T00:06:33.941Z,1002.5
2016-07-11T00:07:33.926Z,1002.44
2016-07-11T00:08:33.913Z,1002.43
2016-07-11T00:09:33.900Z,1002.47
2016-07-11T00:10:33.887Z,1002.39
2016-07-11T00:11:33.875Z,1002.42
2016-07-11T00:12:33.856Z,1002.43
2016-07-11T00:13:33.839Z,1002.45
2016-07-11T00:14:33.830Z,1002.46
2016-07-11T00:15:33.812Z,1002.52
2016-07-11T00:16:33.802Z,1002.5
2016-07-11T00:17:33.782Z,1002.54
2016-07-11T00:18:33.769Z,1002.51
2016-07-11T00:19:33.756Z,1002.5
2016-07-11T00:20:33.744Z,1002.44
2016-07-11T00:21:33.725Z,1002.47
2016-07-11T00:22:33.713Z,1002.46
2016-07-11T00:23:33.697Z,1002.43
2016-07-11T00:24:33.685Z,1002.46
2016-07-11T00:25:33.668Z,1002.39
2016-07-11T00:26:33.655Z,1002.39
2016-07-11T00:27:33.642Z,1002.4
2016-07-11T00:28:33.626Z,1002.44
2016-07-11T00:29:33.612Z,1002.44
2016-07-11T00:30:33.598Z,1002.45
2016-07-11T00:31:33.583Z,1002.4
2016-07-11T00:32:33.570Z,1002.45
2016-07-11T00:33:33.555Z,1002.42
2016-07-11T00:34:33.541Z,1002.46
2016-07-11T00:35:33.525Z,1002.45
2016-07-11T00:36:33.512Z,1002.44
2016-07-11T00:37:33.503Z,1002.43
2016-07-11T00:38:33.481Z,1002.46
2016-07-11T00:39:33.471Z,1002.46
2016-07-11T00:40:33.453Z,1002.5
2016-07-11T00:41:33.439Z,1002.47
2016-07-11T00:42:33.425Z,1002.49
2016-07-11T00:43:33.410Z,1002.51
2016-07-11T00:44:33.402Z,1002.48
2016-07-11T00:45:33.382Z,1002.51
2016-07-11T00:46:33.369Z,1002.52
2016-07-11T00:47:33.354Z,1002.5
2016-07-11T00:48:33.342Z,1002.49
2016-07-11T00:49:33.326Z,1002.53
2016-07-11T00:50:33.309Z,1002.52
2016-07-11T00:51:33.296Z,1002.53
2016-07-11T00:52:33.283Z,1002.49
2016-07-11T00:53:33.266Z,1002.46
2016-07-11T00:54:33.256Z,1002.46
2016-07-11T00:55:33.239Z,1002.43
2016-07-11T00:56:33.225Z,1002.43
2016-07-11T00:57:33.210Z,1002.43
2016-07-11T00:58:33.195Z,1002.38
2016-07-11T00:59:33.181Z,1002.36
2016-07-11T01:00:33.166Z,1002.32
2016-07-11T01:01:33.151Z,1002.33
2016-07-11T01:02:33.138Z,1002.34
2016-07-11T01:03:33.126Z,1002.35
2016-07-11T01:04:33.112Z,1002.36
2016-07-11T01:05:33.094Z,1002.39
2016-07-11T01:06:33.080Z,1002.41
2016-07-11T01:07:33.065Z,1002.36
2016-07-11T01:08:33.050Z,1002.4
2016-07-11T01:09:33.032Z,1002.38
2016-07-11T01:10:33.025Z,1002.42
2016-07-11T01:11:33.006Z,1002.41
2016-07-11T01:12:32.991Z,1002.36
2016-07-11T01:13:32.981Z,1002.32
2016-07-11T01:14:32.967Z,1002.4
2016-07-11T01:15:32.949Z,1002.31
2016-07-11T01:16:32.937Z,1002.38
2016-07-11T01:17:32.921Z,1002.36
2016-07-11T01:18:32.909Z,1002.32
2016-07-11T01:19:32.893Z,1002.34
2016-07-11T01:20:32.877Z,1002.37
2016-07-11T01:21:32.868Z,1002.38
2016-07-11T01:22:32.848Z,1002.36
2016-07-11T01:23:32.834Z,1002.33
2016-07-11T01:24:32.822Z,1002.33
2016-07-11T01:25:32.805Z,1002.31
2016-07-11T01:26:32.793Z,1002.32
2016-07-11T01:27:32.777Z,1002.35
2016-07-11T01:28:32.763Z,1002.36
2016-07-11T01:29:32.753Z,1002.35
2016-07-11T01:30:32.733Z,1002.35
2016-07-11T01:31:32.720Z,1002.33
2016-07-11T01:32:32.706Z,1002.33
2016-07-11T01:33:32.696Z,1002.33
2016-07-11T01:34:32.675Z,1002.35
2016-07-11T01:35:32.663Z,1002.31
2016-07-11T01:36:32.648Z,1002.34
2016-07-11T01:37:32.638Z,1002.3
2016-07-11T01:38:32.626Z,1002.3
2016-07-11T01:39:32.604Z,1002.31
2016-07-11T01:40:32.597Z,1002.26
2016-07-11T01:41:32.578Z,1002.33
2016-07-11T01:42:32.562Z,1002.32
2016-07-11T01:43:32.550Z,1002.34
2016-07-11T01:44:32.533Z,1002.31
2016-07-11T01:45:32.519Z,1002.3
2016-07-11T01:46:32.503Z,1002.32
2016-07-11T01:47:32.489Z,1002.3
2016-07-11T01:48:32.477Z,1002.31
2016-07-11T01:49:32.463Z,1002.29
2016-07-11T01:50:32.446Z,1002.31
2016-07-11T01:51:32.433Z,1002.32
2016-07-11T01:52:32.416Z,1002.3
2016-07-11T01:53:32.403Z,1002.33
2016-07-11T01:54:32.389Z,1002.29
2016-07-11T01:55:32.378Z,1002.29
2016-07-11T01:56:32.358Z,1002.32
2016-07-11T01:57:32.345Z,1002.26
2016-07-11T01:58:32.332Z,1002.27
2016-07-11T01:59:32.312Z,1002.31
2016-07-11T02:00:32.299Z,1002.26
2016-07-11T02:01:32.282Z,1002.24
2016-07-11T02:02:32.271Z,1002.29
2016-07-11T02:03:32.258Z,1002.32
2016-07-11T02:04:32.240Z,1002.34
2016-07-11T02:05:32.231Z,1002.34
2016-07-11T02:06:32.212Z,1002.37
2016-07-11T02:07:32.197Z,1002.36
2016-07-11T02:08:32.187Z,1002.38
2016-07-11T02:09:32.171Z,1002.35
2016-07-11T02:10:32.160Z,1002.34
2016-07-11T02:11:32.140Z,1002.38
2016-07-11T02:12:32.131Z,1002.36
2016-07-11T02:13:32.110Z,1002.34
2016-07-11T02:14:32.094Z,1002.33
2016-07-11T02:15:32.081Z,1002.32
2016-07-11T02:16:32.068Z,1002.3
2016-07-11T02:17:32.054Z,1002.3
2016-07-11T02:18:32.042Z,1002.31
2016-07-11T02:19:32.025Z,1002.3
2016-07-11T02:20:32.012Z,1002.28
2016-07-11T02:21:31.996Z,1002.28
2016-07-11T02:22:31.981Z,1002.28
2016-07-11T02:23:31.967Z,1002.3
2016-07-11T02:24:31.955Z,1002.32
2016-07-11T02:25:31.935Z,1002.27
2016-07-11T02:26:31.925Z,1002.31
2016-07-11T02:27:31.907Z,1002.34
2016-07-11T02:28:31.896Z,1002.35
2016-07-11T02:29:31.885Z,1002.33
2016-07-11T02:30:31.865Z,1002.32
2016-07-11T02:31:31.852Z,1002.23
2016-07-11T02:32:31.837Z,1002.24
2016-07-11T02:33:31.821Z,1002.26
2016-07-11T02:34:31.809Z,1002.21
2016-07-11T02:35:31.793Z,1002.25
2016-07-11T02:36:31.780Z,1002.21
2016-07-11T02:37:31.767Z,1002.21
2016-07-11T02:38:31.766Z,1002.13
2016-07-11T02:39:31.740Z,1002.13
2016-07-11T02:40:31.721Z,1002.11
2016-07-11T02:41:31.704Z,1002.1
2016-07-11T02:42:31.693Z,1002.11
2016-07-11T02:43:31.682Z,1002.17
2016-07-11T02:44:31.662Z,1002.17
2016-07-11T02:45:31.652Z,1002.15
2016-07-11T02:46:31.632Z,1002.15
2016-07-11T02:47:31.622Z,1002.11
2016-07-11T02:48:31.605Z,1002.15
2016-07-11T02:49:31.593Z,1002.11
2016-07-11T02:50:31.576Z,1002.08
2016-07-11T02:51:31.564Z,1002.11
2016-07-11T02:52:31.548Z,1002.08
2016-07-11T02:53:31.532Z,1002.08
2016-07-11T02:54:31.517Z,1002.09
2016-07-11T02:55:31.503Z,1002.1
2016-07-11T02:56:31.490Z,1002.12
2016-07-11T02:57:31.475Z,1002.14
2016-07-11T02:58:31.457Z,1002.17
2016-07-11T02:59:31.444Z,1002.1
2016-07-11T03:00:31.431Z,1002.14
2016-07-11T03:01:31.417Z,1002.13
2016-07-11T03:02:31.409Z,1002.09
2016-07-11T03:03:31.387Z,1002.11
2016-07-11T03:04:31.372Z,1002.09
2016-07-11T03:05:31.358Z,1002.12
2016-07-11T03:06:31.350Z,1002.11
2016-07-11T03:07:31.331Z,1002.11
2016-07-11T03:08:31.316Z,1002.11
2016-07-11T03:09:31.302Z,1002.05
2016-07-11T03:10:31.307Z,1002.07
2016-07-11T03:11:31.273Z,1002.06
2016-07-11T03:12:31.258Z,1002.09
2016-07-11T03:13:31.248Z,1002.1
2016-07-11T03:14:31.234Z,1002.1
2016-07-11T03:15:31.215Z,1002.06
2016-07-11T03:16:31.197Z,1002.03
2016-07-11T03:17:31.185Z,1002.09
2016-07-11T03:18:31.172Z,1002.07
2016-07-11T03:19:31.158Z,1002.14
2016-07-11T03:20:31.145Z,1002.14
2016-07-11T03:21:31.127Z,1002.17
2016-07-11T03:22:31.116Z,1002.16
2016-07-11T03:23:31.099Z,1002.18
2016-07-11T03:24:31.083Z,1002.19
2016-07-11T03:25:31.071Z,1002.24
2016-07-11T03:26:31.055Z,1002.25
2016-07-11T03:27:31.038Z,1002.32
2016-07-11T03:28:31.025Z,1002.34
2016-07-11T03:29:31.012Z,1002.28
2016-07-11T03:30:30.998Z,1002.28
2016-07-11T03:31:30.983Z,1002.27
2016-07-11T03:32:30.969Z,1002.29
2016-07-11T03:33:30.955Z,1002.3
2016-07-11T03:34:30.937Z,1002.28
2016-07-11T03:35:30.924Z,1002.23
2016-07-11T03:36:30.911Z,1002.29
2016-07-11T03:37:30.894Z,1002.29
2016-07-11T03:38:30.880Z,1002.27
2016-07-11T03:39:30.865Z,1002.24
2016-07-11T03:40:30.852Z,1002.24
2016-07-11T03:41:30.851Z,1002.14
2016-07-11T03:42:30.820Z,1002.1
2016-07-11T03:43:30.811Z,1002.05
2016-07-11T03:44:30.791Z,1002.08
2016-07-11T03:45:30.779Z,1002.15
2016-07-11T03:46:30.763Z,1002.19
2016-07-11T03:47:30.749Z,1002.27
2016-07-11T03:48:30.734Z,1002.26
2016-07-11T03:49:30.725Z,1002.29
2016-07-11T03:50:30.706Z,1002.22
2016-07-11T03:51:30.692Z,1002.22
2016-07-11T03:52:30.677Z,1002.27
2016-07-11T03:53:30.665Z,1002.27
2016-07-11T03:54:30.647Z,1002.3
2016-07-11T03:55:30.636Z,1002.3
2016-07-11T03:56:30.618Z,1002.22
2016-07-11T03:57:30.606Z,1002.23
2016-07-11T03:58:30.590Z,1002.22
2016-07-11T03:59:30.576Z,1002.2
2016-07-11T04:00:30.557Z,1002.25
2016-07-11T04:01:30.546Z,1002.25
2016-07-11T04:02:30.531Z,1002.31
2016-07-11T04:03:30.515Z,1002.3
2016-07-11T04:04:30.503Z,1002.3
2016-07-11T04:05:30.486Z,1002.32
2016-07-11T04:06:30.472Z,1002.37
2016-07-11T04:07:30.456Z,1002.34
2016-07-11T04:08:30.445Z,1002.29
2016-07-11T04:09:30.432Z,1002.31
2016-07-11T04:10:30.415Z,1002.31
2016-07-11T04:11:30.399Z,1002.37
2016-07-11T04:12:30.385Z,1002.29
2016-07-11T04:13:30.370Z,1002.3
2016-07-11T04:14:30.357Z,1002.34
2016-07-11T04:15:30.340Z,1002.28
2016-07-11T04:16:30.328Z,1002.27
2016-07-11T04:17:30.314Z,1002.26
2016-07-11T04:18:30.302Z,1002.29
2016-07-11T04:19:30.285Z,1002.23
2016-07-11T04:20:30.270Z,1002.21
2016-07-11T04:21:30.254Z,1002.23
2016-07-11T04:22:30.243Z,1002.24
2016-07-11T04:23:30.226Z,1002.23
2016-07-11T04:24:30.213Z,1002.21
2016-07-11T04:25:30.196Z,1002.26
2016-07-11T04:26:30.180Z,1002.23
2016-07-11T04:27:30.167Z,1002.23
2016-07-11T04:28:30.157Z,1002.23
2016-07-11T04:29:30.138Z,1002.23
2016-07-11T04:30:30.127Z,1002.3
2016-07-11T04:31:30.110Z,1002.23
2016-07-11T04:32:30.095Z,1002.28
2016-07-11T04:33:30.078Z,1002.27
2016-07-11T04:34:30.073Z,1002.29
2016-07-11T04:35:30.051Z,1002.28
2016-07-11T04:36:30.038Z,1002.33
2016-07-11T04:37:30.023Z,1002.3
2016-07-11T04:38:30.009Z,1002.33
2016-07-11T04:39:29.992Z,1002.36
2016-07-11T04:40:29.977Z,1002.38
2016-07-11T04:41:29.964Z,1002.38
2016-07-11T04:42:29.950Z,1002.4
2016-07-11T04:43:29.933Z,1002.42
2016-07-11T04:44:29.918Z,1002.43
2016-07-11T04:45:29.907Z,1002.43
2016-07-11T04:46:29.891Z,1002.41
2016-07-11T04:47:29.877Z,1002.42
2016-07-11T04:48:29.864Z,1002.43
2016-07-11T04:49:29.846Z,1002.45
2016-07-11T04:50:29.834Z,1002.39
2016-07-11T04:51:29.818Z,1002.44
2016-07-11T04:52:29.815Z,1002.49
2016-07-11T04:53:29.790Z,1002.48
2016-07-11T04:54:29.774Z,1002.4
2016-07-11T04:55:29.761Z,1002.46
2016-07-11T04:56:29.746Z,1002.48
2016-07-11T04:57:29.734Z,1002.44
2016-07-11T04:58:29.718Z,1002.44
2016-07-11T04:59:29.705Z,1002.43
2016-07-11T05:00:29.686Z,1002.43
2016-07-11T05:01:29.674Z,1002.44
2016-07-11T05:02:29.657Z,1002.49
2016-07-11T05:03:29.645Z,1002.51
2016-07-11T05:04:29.628Z,1002.46
2016-07-11T05:05:29.618Z,1002.45
2016-07-11T05:06:29.599Z,1002.43
2016-07-11T05:07:29.582Z,1002.49
2016-07-11T05:08:29.572Z,1002.49
2016-07-11T05:09:29.560Z,1002.49
2016-07-11T05:10:29.540Z,1002.48
2016-07-11T05:11:29.526Z,1002.5
2016-07-11T05:12:29.512Z,1002.52
2016-07-11T05:13:29.500Z,1002.57
2016-07-11T05:14:29.483Z,1002.55
2016-07-11T05:15:29.470Z,1002.58
2016-07-11T05:16:29.456Z,1002.63
2016-07-11T05:17:29.439Z,1002.66
2016-07-11T05:18:29.424Z,1002.61
2016-07-11T05:19:29.412Z,1002.58
2016-07-11T05:20:29.396Z,1002.61
2016-07-11T05:21:29.379Z,1002.59
2016-07-11T05:22:29.367Z,1002.6
2016-07-11T05:23:29.350Z,1002.62
2016-07-11T05:24:29.335Z,1002.59
2016-07-11T05:25:29.321Z,1002.58
2016-07-11T05:26:29.307Z,1002.62
2016-07-11T05:27:29.296Z,1002.58
2016-07-11T05:28:29.279Z,1002.61
2016-07-11T05:29:29.267Z,1002.65
2016-07-11T05:30:29.247Z,1002.64
2016-07-11T05:31:29.236Z,1002.66
2016-07-11T05:32:29.220Z,1002.65
2016-07-11T05:33:29.205Z,1002.63
2016-07-11T05:34:29.198Z,1002.65
2016-07-11T05:35:29.177Z,1002.72
2016-07-11T05:36:29.161Z,1002.73
2016-07-11T05:37:29.147Z,1002.65
2016-07-11T05:38:29.133Z,1002.67
2016-07-11T05:39:29.116Z,1002.67
2016-07-11T05:40:29.103Z,1002.65
2016-07-11T05:41:29.089Z,1002.65
2016-07-11T05:42:29.075Z,1002.66
2016-07-11T05:43:29.058Z,1002.66
2016-07-11T05:44:29.047Z,1002.76
2016-07-11T05:45:29.028Z,1002.71
2016-07-11T05:46:29.012Z,1002.7
2016-07-11T05:47:29.001Z,1002.72
2016-07-11T05:48:28.984Z,1002.8
2016-07-11T05:49:28.973Z,1002.89
2016-07-11T05:50:28.959Z,1002.88
2016-07-11T05:51:28.942Z,1002.88
2016-07-11T05:52:28.927Z,1002.9
2016-07-11T05:53:28.914Z,1002.98
2016-07-11T05:54:28.899Z,1002.93
2016-07-11T05:55:28.883Z,1002.91
2016-07-11T05:56:28.869Z,1003.02
2016-07-11T05:57:28.852Z,1002.97
2016-07-11T05:58:28.837Z,1002.99
2016-07-11T05:59:28.825Z,1002.95
2016-07-11T06:00:28.814Z,1002.96
2016-07-11T06:01:28.789Z,1003.03
2016-07-11T06:02:28.785Z,1003
2016-07-11T06:03:28.766Z,1003.06
2016-07-11T06:04:28.750Z,1003.11
2016-07-11T06:05:28.735Z,1002.97
2016-07-11T06:06:28.723Z,1002.99
2016-07-11T06:07:28.705Z,1002.95
2016-07-11T06:08:28.696Z,1002.94
2016-07-11T06:09:28.681Z,1002.93
2016-07-11T06:10:28.661Z,1002.94
2016-07-11T06:11:28.648Z,1002.97
2016-07-11T06:12:28.635Z,1002.99
2016-07-11T06:13:28.616Z,1003
2016-07-11T06:14:28.602Z,1003.01
2016-07-11T06:15:28.589Z,1003.04
2016-07-11T06:16:28.571Z,1003.04
2016-07-11T06:17:28.557Z,1003
2016-07-11T06:18:28.545Z,1003.03
2016-07-11T06:19:28.528Z,1003.06
2016-07-11T06:20:28.513Z,1003.1
2016-07-11T06:21:28.498Z,1003.07
2016-07-11T06:22:28.486Z,1003.04
2016-07-11T06:23:28.472Z,1003.03
2016-07-11T06:24:28.456Z,1003.04
2016-07-11T06:25:28.439Z,1002.97
2016-07-11T06:26:28.425Z,1003.01
2016-07-11T06:27:28.411Z,1003.03
2016-07-11T06:28:28.396Z,1002.99
2016-07-11T06:29:28.381Z,1002.99
2016-07-11T06:30:28.370Z,1003.02
2016-07-11T06:31:28.351Z,1003.04
2016-07-11T06:32:28.336Z,1003.04
2016-07-11T06:33:28.322Z,1003.06
2016-07-11T06:34:28.311Z,1003.05
2016-07-11T06:35:28.292Z,1002.97
2016-07-11T06:36:28.276Z,1003
2016-07-11T06:37:28.261Z,1003.14
2016-07-11T06:38:28.246Z,1003.1
2016-07-11T06:39:28.230Z,1003.14
2016-07-11T06:40:28.220Z,1003.24
2016-07-11T06:41:28.201Z,1003.21
2016-07-11T06:42:28.186Z,1003.31
2016-07-11T06:43:28.172Z,1003.3
2016-07-11T06:44:28.157Z,1003.27
2016-07-11T06:45:28.140Z,1003.33
2016-07-11T06:46:28.125Z,1003.4
2016-07-11T06:47:28.114Z,1003.36
2016-07-11T06:48:28.095Z,1003.37
2016-07-11T06:49:28.083Z,1003.28
2016-07-11T06:50:28.068Z,1003.33
2016-07-11T06:51:28.053Z,1003.41
2016-07-11T06:52:28.042Z,1003.38
2016-07-11T06:53:28.020Z,1003.36
2016-07-11T06:54:28.009Z,1003.27
2016-07-11T06:55:27.993Z,1003.32
2016-07-11T06:56:27.977Z,1003.29
2016-07-11T06:57:27.963Z,1003.24
2016-07-11T06:58:27.948Z,1003.27
2016-07-11T06:59:27.933Z,1003.28
2016-07-11T07:00:27.917Z,1003.29
2016-07-11T07:01:27.902Z,1003.23
2016-07-11T07:02:27.888Z,1003.3
2016-07-11T07:03:27.871Z,1003.31
2016-07-11T07:04:27.857Z,1003.33
2016-07-11T07:05:27.845Z,1003.25
2016-07-11T07:06:27.828Z,1003.27
2016-07-11T07:07:27.817Z,1003.29
2016-07-11T07:08:27.797Z,1003.33
2016-07-11T07:09:27.785Z,1003.37
2016-07-11T07:10:27.770Z,1003.35
2016-07-11T07:11:27.752Z,1003.4
2016-07-11T07:12:27.740Z,1003.33
2016-07-11T07:13:27.724Z,1003.37
2016-07-11T07:14:27.707Z,1003.36
2016-07-11T07:15:27.694Z,1003.37
2016-07-11T07:16:27.679Z,1003.36
2016-07-11T07:17:27.665Z,1003.35
2016-07-11T07:18:27.649Z,1003.38
2016-07-11T07:19:27.636Z,1003.43
2016-07-11T07:20:27.618Z,1003.4
2016-07-11T07:21:27.604Z,1003.42
2016-07-11T07:22:27.591Z,1003.44
2016-07-11T07:23:27.574Z,1003.42
2016-07-11T07:24:27.558Z,1003.39
2016-07-11T07:25:27.544Z,1003.43
2016-07-11T07:26:27.529Z,1003.36
2016-07-11T07:27:27.516Z,1003.34
2016-07-11T07:28:27.498Z,1003.34
2016-07-11T07:29:27.483Z,1003.31
2016-07-11T07:30:27.469Z,1003.3
2016-07-11T07:31:27.455Z,1003.35
2016-07-11T07:32:27.440Z,1003.38
2016-07-11T07:33:27.424Z,1003.43
2016-07-11T07:34:27.413Z,1003.44
2016-07-11T07:35:27.397Z,1003.46
2016-07-11T07:36:27.380Z,1003.47
2016-07-11T07:37:27.363Z,1003.49
2016-07-11T07:38:27.350Z,1003.45
2016-07-11T07:39:27.334Z,1003.41
2016-07-11T07:40:27.319Z,1003.41
2016-07-11T07:41:27.303Z,1003.39
2016-07-11T07:42:27.291Z,1003.47
2016-07-11T07:43:27.274Z,1003.36
2016-07-11T07:44:27.260Z,1003.46
2016-07-11T07:45:27.243Z,1003.41
2016-07-11T07:46:27.233Z,1003.38
2016-07-11T07:47:27.216Z,1003.43
2016-07-11T07:48:27.202Z,1003.42
2016-07-11T07:49:27.185Z,1003.39
2016-07-11T07:50:27.170Z,1003.34
2016-07-11T07:51:27.157Z,1003.36
2016-07-11T07:52:27.139Z,1003.42
2016-07-11T07:53:27.128Z,1003.36
2016-07-11T07:54:27.110Z,1003.35
2016-07-11T07:55:27.096Z,1003.37
2016-07-11T07:56:27.081Z,1003.33
2016-07-11T07:57:27.066Z,1003.35
2016-07-11T07:58:27.050Z,1003.36
2016-07-11T07:59:27.036Z,1003.32
2016-07-11T08:00:27.022Z,1003.36
2016-07-11T08:01:27.006Z,1003.37
2016-07-11T08:02:26.991Z,1003.42
2016-07-11T08:03:26.978Z,1003.43
2016-07-11T08:04:26.961Z,1003.41
2016-07-11T08:05:26.946Z,1003.45
2016-07-11T08:06:26.933Z,1003.42
2016-07-11T08:07:26.916Z,1003.43
2016-07-11T08:08:26.902Z,1003.48
2016-07-11T08:09:26.888Z,1003.35
2016-07-11T08:10:26.872Z,1003.52
2016-07-11T08:11:26.857Z,1003.49
2016-07-11T08:12:26.841Z,1003.42
2016-07-11T08:13:26.825Z,1003.55
2016-07-11T08:14:26.813Z,1003.55
2016-07-11T08:15:26.795Z,1003.53
2016-07-11T08:16:26.779Z,1003.52
2016-07-11T08:17:26.767Z,1003.46
2016-07-11T08:18:26.753Z,1003.42
2016-07-11T08:19:26.735Z,1003.58
2016-07-11T08:20:26.722Z,1003.49
2016-07-11T08:21:26.705Z,1003.48
2016-07-11T08:22:26.693Z,1003.52
2016-07-11T08:23:26.675Z,1003.47
2016-07-11T08:24:26.663Z,1003.55
2016-07-11T08:25:26.647Z,1003.56
2016-07-11T08:26:26.631Z,1003.55
2016-07-11T08:27:26.617Z,1003.5
2016-07-11T08:28:26.602Z,1003.6
2016-07-11T08:29:26.585Z,1003.56
2016-07-11T08:30:26.581Z,1003.59
2016-07-11T08:31:26.553Z,1003.64
2016-07-11T08:32:26.546Z,1003.52
2016-07-11T08:33:26.531Z,1003.6
2016-07-11T08:34:26.514Z,1003.65
2016-07-11T08:35:26.497Z,1003.57
2016-07-11T08:36:26.486Z,1003.59
2016-07-11T08:37:26.470Z,1003.63
2016-07-11T08:38:26.458Z,1003.66
2016-07-11T08:39:26.435Z,1003.58
2016-07-11T08:40:26.425Z,1003.59
2016-07-11T08:41:26.409Z,1003.63
2016-07-11T08:42:26.394Z,1003.66
2016-07-11T08:43:26.377Z,1003.7
2016-07-11T08:44:26.362Z,1003.75
2016-07-11T08:45:26.349Z,1003.71
2016-07-11T08:46:26.334Z,1003.73
2016-07-11T08:47:26.319Z,1003.73
2016-07-11T08:48:26.302Z,1003.75
2016-07-11T08:49:26.288Z,1003.74
2016-07-11T08:50:26.272Z,1003.71
2016-07-11T08:51:26.257Z,1003.8
2016-07-11T08:52:26.246Z,1003.82
2016-07-11T08:53:26.227Z,1003.81
2016-07-11T08:54:26.216Z,1003.86
2016-07-11T08:55:26.198Z,1003.83
2016-07-11T08:56:26.185Z,1003.86
2016-07-11T08:57:26.168Z,1003.83
2016-07-11T08:58:26.156Z,1003.78
2016-07-11T08:59:26.143Z,1003.77
2016-07-11T09:00:26.125Z,1003.81
2016-07-11T09:01:26.109Z,1003.84
2016-07-11T09:02:26.094Z,1003.86
2016-07-11T09:03:26.081Z,1003.86
2016-07-11T09:04:26.064Z,1003.84
2016-07-11T09:05:26.054Z,1003.88
2016-07-11T09:06:26.034Z,1003.81
2016-07-11T09:07:26.020Z,1003.84
2016-07-11T09:08:26.005Z,1003.86
2016-07-11T09:09:25.993Z,1003.8
2016-07-11T09:10:25.978Z,1003.82
2016-07-11T09:11:25.960Z,1003.78
2016-07-11T09:12:25.945Z,1003.78
2016-07-11T09:13:25.933Z,1003.82
2016-07-11T09:14:25.918Z,1003.76
2016-07-11T09:15:25.901Z,1003.71
2016-07-11T09:16:25.887Z,1003.72
2016-07-11T09:17:25.873Z,1003.8
2016-07-11T09:18:25.856Z,1003.72
2016-07-11T09:19:25.844Z,1003.67
2016-07-11T09:20:25.830Z,1003.67
2016-07-11T09:21:25.812Z,1003.82
2016-07-11T09:22:25.799Z,1003.73
2016-07-11T09:23:25.783Z,1003.74
2016-07-11T09:24:25.770Z,1003.76
2016-07-11T09:25:25.754Z,1003.65
2016-07-11T09:26:25.741Z,1003.82
2016-07-11T09:27:25.729Z,1003.71
2016-07-11T09:28:25.709Z,1003.8
2016-07-11T09:29:25.695Z,1003.78
2016-07-11T09:30:25.680Z,1003.76
2016-07-11T09:31:25.670Z,1003.79
2016-07-11T09:32:25.652Z,1003.87
2016-07-11T09:33:25.635Z,1003.88
2016-07-11T09:34:25.621Z,1003.89
2016-07-11T09:35:25.607Z,1003.9
2016-07-11T09:36:25.593Z,1003.84
2016-07-11T09:37:25.578Z,1003.89
2016-07-11T09:38:25.562Z,1003.86
2016-07-11T09:39:25.548Z,1003.89
2016-07-11T09:40:25.532Z,1004.04
2016-07-11T09:41:25.519Z,1003.99
2016-07-11T09:42:25.508Z,1003.89
2016-07-11T09:43:25.495Z,1003.87
2016-07-11T09:44:25.476Z,1003.85
2016-07-11T09:45:25.460Z,1003.85
2016-07-11T09:46:25.443Z,1003.91
2016-07-11T09:47:25.430Z,1003.93
2016-07-11T09:48:25.415Z,1003.9
2016-07-11T09:49:25.401Z,1003.95
2016-07-11T09:50:25.390Z,1003.87
2016-07-11T09:51:25.372Z,1003.91
2016-07-11T09:52:25.356Z,1003.75
2016-07-11T09:53:25.344Z,1003.77
2016-07-11T09:54:25.328Z,1003.86
2016-07-11T09:55:25.317Z,1003.81
2016-07-11T09:56:25.298Z,1003.77
2016-07-11T09:57:25.284Z,1003.88
2016-07-11T09:58:25.267Z,1003.85
2016-07-11T09:59:25.253Z,1003.92
2016-07-11T10:00:25.240Z,1003.92
2016-07-11T10:01:25.225Z,1003.84
2016-07-11T10:02:25.209Z,1003.92
2016-07-11T10:03:25.192Z,1003.89
2016-07-11T10:04:25.180Z,1003.93
2016-07-11T10:05:25.168Z,1003.93
2016-07-11T10:06:25.147Z,1003.95
2016-07-11T10:07:25.135Z,1003.96
2016-07-11T10:08:25.118Z,1004.02
2016-07-11T10:09:25.108Z,1004.12
2016-07-11T10:10:25.088Z,1004.01
2016-07-11T10:11:25.079Z,1003.97
2016-07-11T10:12:25.061Z,1003.97
2016-07-11T10:13:25.046Z,1004.03
2016-07-11T10:14:25.031Z,1003.89
2016-07-11T10:15:25.018Z,1003.93
2016-07-11T10:16:25.002Z,1003.88
2016-07-11T10:17:24.988Z,1003.92
2016-07-11T10:18:24.970Z,1003.96
2016-07-11T10:19:24.958Z,1003.96
2016-07-11T10:20:24.941Z,1004
2016-07-11T10:21:24.927Z,1003.98
2016-07-11T10:22:24.913Z,1003.96
2016-07-11T10:23:24.906Z,1004
2016-07-11T10:24:24.882Z,1003.97
2016-07-11T10:25:24.868Z,1003.93
2016-07-11T10:26:24.854Z,1004.04
2016-07-11T10:27:24.840Z,1003.98
2016-07-11T10:28:24.824Z,1004.02
2016-07-11T10:29:24.809Z,1003.92
2016-07-11T10:30:24.796Z,1003.87
2016-07-11T10:31:24.779Z,1004
2016-07-11T10:32:24.768Z,1003.92
2016-07-11T10:33:24.752Z,1004.02
2016-07-11T10:34:24.735Z,1003.98
2016-07-11T10:35:24.721Z,1003.92
2016-07-11T10:36:24.707Z,1003.89
2016-07-11T10:37:24.693Z,1003.87
2016-07-11T10:38:24.676Z,1003.89
2016-07-11T10:39:24.662Z,1003.87
2016-07-11T10:40:24.648Z,1003.87
2016-07-11T10:41:24.632Z,1003.93
2016-07-11T10:42:24.619Z,1004.13
2016-07-11T10:43:24.603Z,1003.96
2016-07-11T10:44:24.588Z,1003.93
2016-07-11T10:45:24.575Z,1003.92
2016-07-11T10:46:24.558Z,1003.93
2016-07-11T10:47:24.545Z,1003.96
2016-07-11T10:48:24.529Z,1004.06
2016-07-11T10:49:24.520Z,1004.02
2016-07-11T10:50:24.497Z,1004.04
2016-07-11T10:51:24.486Z,1003.99
2016-07-11T10:52:24.471Z,1003.99
2016-07-11T10:53:24.455Z,1004
2016-07-11T10:54:24.441Z,1003.97
2016-07-11T10:55:24.427Z,1003.97
2016-07-11T10:56:24.415Z,1003.93
2016-07-11T10:57:24.397Z,1003.94
2016-07-11T10:58:24.381Z,1004
2016-07-11T10:59:24.368Z,1004.01
2016-07-11T11:00:24.354Z,1003.97
2016-07-11T11:01:24.340Z,1004.05
2016-07-11T11:02:24.323Z,1004.02
2016-07-11T11:03:24.313Z,1004.03
2016-07-11T11:04:24.302Z,1004.09
2016-07-11T11:05:24.291Z,1004.08
2016-07-11T11:06:24.270Z,1004.11
2016-07-11T11:07:24.307Z,1004.08
2016-07-11T11:08:24.241Z,1004.1
2016-07-11T11:09:24.221Z,1004.09
2016-07-11T11:10:24.213Z,1004.15
2016-07-11T11:11:24.200Z,1004.12
2016-07-11T11:12:24.186Z,1004.11
2016-07-11T11:13:24.169Z,1004.14
2016-07-11T11:14:24.150Z,1004.13
2016-07-11T11:15:24.134Z,1004.08
2016-07-11T11:16:24.122Z,1004.12
2016-07-11T11:17:24.102Z,1004.15
2016-07-11T11:18:24.104Z,1004.11
2016-07-11T11:19:24.081Z,1004.17
2016-07-11T11:20:24.070Z,1004.16
2016-07-11T11:21:24.048Z,1004.22
2016-07-11T11:22:24.032Z,1004.25
2016-07-11T11:23:24.024Z,1004.28
2016-07-11T11:24:24.009Z,1004.22
2016-07-11T11:25:23.986Z,1004.21
2016-07-11T11:26:23.991Z,1004.22
2016-07-11T11:27:23.959Z,1004.25
2016-07-11T11:28:23.946Z,1004.24
2016-07-11T11:29:23.930Z,1004.25
2016-07-11T11:30:23.920Z,1004.27
2016-07-11T11:31:23.903Z,1004.26
2016-07-11T11:32:23.889Z,1004.3
2016-07-11T11:33:23.873Z,1004.26
2016-07-11T11:34:23.871Z,1004.31
2016-07-11T11:35:23.843Z,1004.32
2016-07-11T11:36:23.840Z,1004.3
2016-07-11T11:37:23.814Z,1004.31
2016-07-11T11:38:23.799Z,1004.28
2016-07-11T11:39:23.788Z,1004.37
2016-07-11T11:40:23.771Z,1004.33
2016-07-11T11:41:23.753Z,1004.31
2016-07-11T11:42:23.748Z,1004.34
2016-07-11T11:43:23.729Z,1004.35
2016-07-11T11:44:23.715Z,1004.31
2016-07-11T11:45:23.701Z,1004.36
2016-07-11T11:46:23.698Z,1004.29
2016-07-11T11:47:23.679Z,1004.31
2016-07-11T11:48:23.659Z,1004.33
2016-07-11T11:49:23.651Z,1004.35
2016-07-11T11:50:23.625Z,1004.36
2016-07-11T11:51:23.617Z,1004.34
2016-07-11T11:52:23.595Z,1004.34
2016-07-11T11:53:23.588Z,1004.36
2016-07-11T11:54:23.572Z,1004.35
2016-07-11T11:55:23.556Z,1004.33
2016-07-11T11:56:23.534Z,1004.32
2016-07-11T11:57:23.528Z,1004.32
2016-07-11T11:58:23.512Z,1004.34
2016-07-11T11:59:23.494Z,1004.39
2016-07-11T12:00:23.480Z,1004.44
2016-07-11T12:01:23.478Z,1004.43
2016-07-11T12:02:23.452Z,1004.35
2016-07-11T12:03:23.437Z,1004.35
2016-07-11T12:04:23.434Z,1004.34
2016-07-11T12:05:23.409Z,1004.38
2016-07-11T12:06:23.400Z,1004.24
2016-07-11T12:07:23.381Z,1004.27
2016-07-11T12:08:23.365Z,1004.3